createdAt,value
2023-02-11T00:01:10.243Z,7.80
2023-02-11T00:05:17.117Z,5.30
2023-02-11T00:09:22.410Z,6.10
2023-02-11T00:13:28.109Z,6.30
2023-02-11T00:17:33.460Z,8.60
2023-02-11T00:21:38.760Z,6.80
2023-02-11T00:25:44.870Z,6.90
2023-02-11T00:29:50.154Z,7.50
2023-02-11T00:33:55.407Z,7.10
2023-02-11T00:38:00.637Z,5.40
2023-02-11T00:42:05.970Z,7.70
2023-02-11T00:46:11.309Z,7.00
2023-02-11T00:50:16.662Z,6.30
2023-02-11T00:54:21.911Z,5.90
2023-02-11T00:58:27.129Z,5.50
2023-02-11T01:02:32.422Z,5.80
2023-02-11T01:06:37.639Z,5.50
2023-02-11T01:10:44.059Z,5.20
2023-02-11T01:14:49.598Z,5.40
2023-02-11T01:18:54.875Z,5.60
2023-02-11T01:23:00.150Z,4.60
2023-02-11T01:27:05.410Z,5.30
2023-02-11T01:31:10.746Z,5.20
2023-02-11T01:35:16.081Z,4.70
2023-02-11T01:39:21.332Z,4.40
2023-02-11T01:43:27.576Z,4.80
2023-02-11T01:47:32.874Z,5.50
2023-02-11T01:51:40.582Z,6.00
2023-02-11T01:56:03.514Z,5.50
2023-02-11T02:00:11.887Z,5.10
2023-02-11T02:04:18.956Z,4.70
2023-02-11T02:08:26.202Z,4.70
2023-02-11T02:12:31.476Z,5.10
2023-02-11T02:16:37.549Z,4.70
2023-02-11T02:21:04.005Z,5.30
2023-02-11T02:25:29.284Z,5.90
2023-02-11T02:29:44.760Z,4.90
2023-02-11T02:33:54.236Z,6.10
2023-02-11T02:38:02.697Z,5.70
2023-02-11T02:42:08.456Z,6.70
2023-02-11T02:46:17.821Z,6.20
2023-02-11T02:50:27.790Z,6.40
2023-02-11T02:54:50.823Z,5.50
2023-02-11T02:59:02.495Z,5.60
2023-02-11T03:03:15.639Z,5.50
2023-02-11T03:07:24.097Z,6.10
2023-02-11T03:11:30.171Z,4.10
2023-02-11T03:19:40.656Z,5.40
2023-02-11T03:23:49.269Z,4.90
2023-02-11T03:27:57.139Z,5.10
2023-02-11T03:32:04.258Z,4.70
2023-02-11T03:36:12.101Z,5.20
2023-02-11T03:40:20.122Z,4.30
2023-02-11T03:44:27.622Z,5.40
2023-02-11T03:48:34.483Z,4.40
2023-02-11T03:52:39.854Z,4.70
2023-02-11T03:56:46.884Z,5.10
2023-02-11T04:00:52.329Z,5.60
2023-02-11T04:04:57.645Z,3.80
2023-02-11T04:09:03.058Z,5.30
2023-02-11T04:13:08.315Z,4.90
2023-02-11T04:17:13.776Z,5.90
2023-02-11T04:21:19.080Z,6.60
2023-02-11T04:25:24.402Z,4.90
2023-02-11T04:29:29.911Z,5.40
2023-02-11T04:33:35.143Z,4.20
2023-02-11T04:37:40.409Z,5.70
2023-02-11T04:41:45.622Z,6.00
2023-02-11T04:45:51.349Z,6.80
2023-02-11T04:49:56.910Z,6.30
2023-02-11T04:54:02.126Z,6.10
2023-02-11T04:58:07.384Z,6.20
2023-02-11T05:02:12.603Z,6.90
2023-02-11T05:06:17.828Z,6.10
2023-02-11T05:10:23.062Z,6.10
2023-02-11T05:14:28.338Z,7.20
2023-02-11T05:18:33.564Z,6.00
2023-02-11T05:22:38.803Z,7.30
2023-02-11T05:26:44.054Z,7.30
2023-02-11T05:30:49.709Z,4.30
2023-02-11T05:34:54.958Z,5.90
2023-02-11T05:39:00.211Z,5.60
2023-02-11T05:43:05.439Z,7.50
2023-02-11T05:47:10.667Z,7.80
2023-02-11T05:51:15.890Z,7.40
2023-02-11T05:55:21.325Z,6.50
2023-02-11T05:59:26.546Z,7.40
2023-02-11T06:03:31.853Z,5.80
2023-02-11T06:07:37.073Z,5.80
2023-02-11T06:11:42.307Z,8.80
2023-02-11T06:15:56.398Z,4.70
2023-02-11T06:20:02.951Z,8.30
2023-02-11T06:24:08.790Z,7.60
2023-02-11T06:28:14.117Z,6.70
2023-02-11T06:32:39.587Z,7.40
2023-02-11T06:36:45.404Z,6.90
2023-02-11T06:40:51.091Z,3.90
2023-02-11T06:44:56.298Z,7.10
2023-02-11T06:49:01.557Z,6.50
2023-02-11T06:53:06.794Z,6.10
2023-02-11T06:57:12.075Z,8.00
2023-02-11T07:01:17.544Z,6.40
2023-02-11T07:05:22.870Z,7.70
2023-02-11T07:09:28.147Z,7.90
2023-02-11T07:13:33.413Z,8.40
2023-02-11T07:17:38.738Z,8.60
2023-02-11T07:21:44.057Z,8.40
2023-02-11T07:25:49.644Z,5.90
2023-02-11T07:29:55.089Z,9.30
2023-02-11T07:34:01.054Z,7.80
2023-02-11T07:42:10.028Z,6.70
2023-02-11T07:46:16.172Z,9.00
2023-02-11T07:50:21.423Z,9.00
2023-02-11T07:54:26.612Z,7.10
2023-02-11T07:58:31.862Z,8.40
2023-02-11T08:02:37.104Z,4.30
2023-02-11T08:06:43.736Z,10.00
2023-02-11T08:10:49.206Z,8.40
2023-02-11T08:14:55.281Z,9.80
2023-02-11T08:19:02.876Z,7.10
2023-02-11T08:23:08.521Z,6.60
2023-02-11T08:27:13.763Z,9.40
2023-02-11T08:31:19.806Z,6.70
2023-02-11T08:35:26.368Z,7.50
2023-02-11T08:39:31.718Z,8.90
2023-02-11T08:43:37.165Z,7.90
2023-02-11T08:47:42.407Z,9.20
2023-02-11T08:51:47.857Z,8.60
2023-02-11T08:55:53.652Z,8.70
2023-02-11T09:04:02.706Z,6.70
2023-02-11T09:08:08.103Z,9.10
2023-02-11T09:12:13.335Z,9.60
2023-02-11T09:16:20.079Z,3.80
2023-02-11T09:20:26.537Z,8.30
2023-02-11T09:24:31.792Z,9.90
2023-02-11T09:28:37.169Z,5.70
2023-02-11T09:32:42.479Z,6.90
2023-02-11T09:36:54.498Z,6.70
2023-02-11T09:40:59.795Z,8.90
2023-02-11T09:45:05.873Z,9.30
2023-02-11T09:53:23.457Z,6.30
2023-02-11T09:57:37.764Z,9.10
2023-02-11T10:11:03.354Z,10.00
2023-02-11T10:15:34.112Z,3.70
2023-02-11T10:24:01.583Z,9.60
2023-02-11T10:28:13.686Z,5.90
2023-02-11T10:32:40.464Z,7.60
2023-02-11T10:37:00.567Z,8.30
2023-02-11T10:54:30.061Z,8.80
2023-02-11T10:58:38.247Z,9.70
2023-02-11T11:02:57.145Z,9.30
2023-02-11T11:07:35.600Z,9.30
2023-02-11T11:11:53.254Z,10.10
2023-02-11T11:16:40.119Z,8.60
2023-02-11T11:21:03.484Z,8.50
2023-02-11T11:29:57.916Z,9.50
2023-02-11T11:38:28.812Z,11.00
2023-02-11T11:42:40.584Z,9.50
2023-02-11T11:46:47.371Z,10.80
2023-02-11T11:51:07.290Z,11.10
2023-02-11T11:55:16.041Z,12.00
2023-02-11T11:59:33.334Z,10.90
2023-02-11T12:04:05.306Z,10.70
2023-02-11T12:08:36.317Z,8.50
2023-02-11T12:16:52.069Z,9.80
2023-02-11T12:25:41.801Z,9.40
2023-02-11T12:34:43.805Z,11.10
2023-02-11T12:39:14.889Z,8.40
2023-02-11T12:43:38.084Z,6.30
2023-02-11T12:52:04.390Z,5.40
2023-02-11T12:56:16.592Z,10.70
2023-02-11T13:00:23.434Z,10.60
2023-02-11T13:04:30.776Z,10.70
2023-02-11T13:08:40.437Z,12.10
2023-02-11T13:18:00.430Z,10.20
2023-02-11T13:22:10.193Z,6.90
2023-02-11T13:26:20.756Z,10.90
2023-02-11T13:30:30.568Z,10.70
2023-02-11T13:34:49.342Z,10.20
2023-02-11T13:38:59.936Z,9.00
2023-02-11T13:43:06.293Z,11.20
2023-02-11T13:47:23.804Z,10.10
2023-02-11T13:51:38.830Z,10.20
2023-02-11T13:55:45.842Z,10.60
2023-02-11T13:59:52.298Z,6.90
2023-02-11T14:04:37.499Z,10.30
2023-02-11T14:08:59.857Z,4.70
2023-02-11T14:13:18.951Z,6.20
2023-02-11T14:17:31.228Z,7.50
2023-02-11T14:21:37.848Z,10.60
2023-02-11T14:25:44.514Z,10.30
2023-02-11T14:29:54.803Z,7.70
2023-02-11T14:34:17.262Z,7.40
2023-02-11T14:38:26.964Z,5.40
2023-02-11T14:42:32.330Z,6.60
2023-02-11T14:46:37.794Z,6.80
2023-02-11T14:50:45.302Z,7.50
2023-02-11T14:54:51.389Z,6.20
2023-02-11T14:58:56.756Z,5.80
2023-02-11T15:03:02.141Z,7.30
2023-02-11T15:07:08.088Z,7.30
2023-02-11T15:15:17.722Z,5.50
2023-02-11T15:23:28.214Z,6.80
2023-02-11T15:27:41.277Z,4.30
2023-02-11T15:31:46.547Z,6.90
2023-02-11T15:35:52.042Z,7.40
2023-02-11T15:40:09.054Z,7.20
2023-02-11T15:48:46.144Z,6.10
2023-02-11T15:52:52.014Z,7.20
2023-02-11T16:01:01.170Z,5.00
2023-02-11T16:05:08.231Z,6.30
2023-02-11T16:09:24.983Z,6.50
2023-02-11T16:13:33.695Z,7.60
2023-02-11T16:17:38.913Z,6.60
2023-02-11T16:21:45.489Z,6.20
2023-02-11T16:25:59.601Z,6.70
2023-02-11T16:30:05.782Z,7.50
2023-02-11T16:34:14.955Z,3.40
2023-02-11T16:38:20.465Z,5.30
2023-02-11T16:42:25.758Z,5.50
2023-02-11T16:46:31.993Z,5.30
2023-02-11T16:50:37.333Z,6.00
2023-02-11T16:54:42.578Z,6.30
2023-02-11T16:58:47.931Z,6.40
2023-02-11T17:02:53.538Z,5.10
2023-02-11T17:06:58.935Z,6.20
2023-02-11T17:11:04.503Z,5.80
2023-02-11T17:15:10.866Z,4.50
2023-02-11T17:19:17.233Z,6.00
2023-02-11T17:23:22.429Z,5.90
2023-02-11T17:27:28.499Z,6.00
2023-02-11T17:31:34.268Z,7.00
2023-02-11T17:35:42.132Z,5.90
2023-02-11T17:39:47.582Z,4.60
2023-02-11T17:43:52.935Z,6.80
2023-02-11T17:47:58.183Z,6.10
2023-02-11T17:52:03.534Z,4.90
2023-02-11T17:56:10.426Z,2.90
2023-02-11T18:00:17.109Z,4.80
2023-02-11T18:04:22.814Z,5.40
2023-02-11T18:08:28.523Z,3.60
2023-02-11T18:12:33.870Z,6.10
2023-02-11T18:16:43.361Z,6.40
2023-02-11T18:20:56.557Z,5.70
2023-02-11T18:25:02.316Z,6.60
2023-02-11T18:29:07.569Z,5.80
2023-02-11T18:33:14.609Z,5.50
2023-02-11T18:37:20.103Z,5.50
2023-02-11T18:41:25.362Z,5.20
2023-02-11T18:45:31.510Z,5.80
2023-02-11T18:49:36.889Z,4.70
2023-02-11T18:53:43.282Z,3.20
2023-02-11T18:57:48.715Z,3.50
2023-02-11T19:01:53.959Z,4.10
2023-02-11T19:05:59.210Z,6.10
2023-02-11T19:10:04.790Z,5.50
2023-02-11T19:14:11.174Z,6.00
2023-02-11T19:18:17.125Z,5.60
2023-02-11T19:22:22.454Z,6.10
2023-02-11T19:26:27.912Z,4.70
2023-02-11T19:30:33.243Z,5.30
2023-02-11T19:34:41.689Z,4.10
2023-02-11T19:38:47.453Z,5.60
2023-02-11T19:42:52.797Z,4.70
2023-02-11T19:46:58.148Z,2.20
2023-02-11T19:51:13.023Z,4.70
2023-02-11T19:55:18.791Z,4.50
2023-02-11T19:59:24.238Z,4.90
2023-02-11T20:03:29.488Z,5.20
2023-02-11T20:07:35.024Z,4.70
2023-02-11T20:11:40.797Z,2.90
2023-02-11T20:15:46.128Z,4.00
2023-02-11T20:19:51.604Z,4.30
2023-02-11T20:23:57.051Z,4.80
2023-02-11T20:28:02.361Z,3.50
2023-02-11T20:32:08.561Z,4.50
2023-02-11T20:36:15.672Z,2.00
2023-02-11T20:40:21.636Z,5.20
2023-02-11T20:44:27.091Z,10.40
2023-02-11T20:48:33.475Z,5.20
2023-02-11T20:52:38.923Z,4.30
2023-02-11T20:56:47.462Z,4.10
2023-02-11T21:00:53.518Z,3.10
2023-02-11T21:04:58.968Z,1.70
2023-02-11T21:09:04.733Z,3.40
2023-02-11T21:17:14.308Z,1.90
2023-02-11T21:21:20.470Z,1.80
2023-02-11T21:25:25.758Z,1.40
2023-02-11T21:29:31.069Z,1.20
2023-02-11T21:33:36.452Z,0.90
2023-02-11T21:37:41.708Z,0.90
2023-02-11T21:41:47.125Z,0.70
2023-02-11T21:45:52.612Z,1.10
2023-02-11T21:49:58.158Z,1.10
2023-02-11T21:54:03.801Z,0.90
2023-02-11T21:58:09.865Z,1.20
2023-02-11T22:02:15.224Z,1.00
2023-02-11T22:06:22.502Z,1.30
2023-02-11T22:10:27.763Z,0.60
2023-02-11T22:14:33.108Z,1.10
2023-02-11T22:18:38.872Z,0.90
2023-02-11T22:22:44.148Z,0.70
2023-02-11T22:26:49.461Z,0.50
2023-02-11T22:30:55.773Z,1.00
2023-02-11T22:35:01.192Z,0.70
2023-02-11T22:39:07.655Z,0.80
2023-02-11T22:43:13.009Z,0.70
2023-02-11T22:47:18.361Z,1.60
2023-02-11T22:51:24.321Z,0.80
2023-02-11T22:59:33.248Z,1.10
2023-02-11T23:03:38.631Z,1.40
2023-02-11T23:07:43.856Z,1.10
2023-02-11T23:11:50.008Z,0.70
2023-02-11T23:15:55.605Z,0.50
2023-02-11T23:20:01.112Z,0.80
2023-02-11T23:24:08.261Z,0.60
2023-02-11T23:28:13.770Z,1.10
2023-02-11T23:32:19.319Z,0.80
2023-02-11T23:36:24.718Z,1.10
2023-02-11T23:40:30.062Z,0.80
2023-02-11T23:44:35.312Z,0.90
2023-02-11T23:48:41.289Z,1.00
2023-02-11T23:56:50.448Z,1.30
